Time;durP1;ratioP1;P1;durP2;ratioP2;P2;SDS_P1;SDS_P2;PMS_P1;PMS_P2;Temp;Humidity;BMP_temperature;BMP_pressure;BME280_temperature;BME280_humidity;BME280_pressure;Samples;Min_cycle;Max_cycle;Signal;HPM_P1;HPM_P2
2023/07/03 00:00:28;;;;;;;33.70;5.25;;;;;;;16.89;100.00;100856.09;5011715;28;20029;-77
2023/07/03 00:02:53;;;;;;;42.38;6.70;;;;;;;16.86;100.00;100851.94;5012073;28;20037;-77
2023/07/03 00:05:19;;;;;;;33.42;5.72;;;;;;;16.88;100.00;100855.25;5010661;28;20038;-76
2023/07/03 00:07:46;;;;;;;44.58;6.65;;;;;;;16.86;100.00;100856.53;5012071;28;20041;-78
2023/07/03 00:10:12;;;;;;;38.20;5.43;;;;;;;16.87;100.00;100852.75;5012752;28;20062;-77
2023/07/03 00:12:37;;;;;;;42.47;5.13;;;;;;;16.88;100.00;100857.97;5014688;28;20442;-76
2023/07/03 00:15:03;;;;;;;42.22;6.05;;;;;;;16.88;100.00;100849.81;5016566;28;20437;-76
2023/07/03 00:17:29;;;;;;;36.13;5.40;;;;;;;16.87;100.00;100848.16;5013231;28;20491;-77
2023/07/03 00:19:54;;;;;;;30.08;5.43;;;;;;;16.86;100.00;100851.94;5012447;28;20120;-76
2023/07/03 00:22:21;;;;;;;36.47;6.65;;;;;;;16.82;100.00;100858.03;5015554;28;20105;-77
2023/07/03 00:24:46;;;;;;;38.72;5.95;;;;;;;16.76;100.00;100851.56;5016765;28;20101;-77
2023/07/03 00:27:11;;;;;;;33.72;6.18;;;;;;;16.72;100.00;100853.09;5024083;28;20068;-77
2023/07/03 00:29:37;;;;;;;35.53;5.72;;;;;;;16.75;100.00;100851.81;5022721;28;20056;-77
2023/07/03 00:32:02;;;;;;;49.70;7.00;;;;;;;16.79;100.00;100861.19;5023955;28;20026;-77
2023/07/03 00:34:28;;;;;;;33.40;6.05;;;;;;;16.82;100.00;100858.84;5022782;28;20112;-77
2023/07/03 00:36:54;;;;;;;38.97;5.95;;;;;;;16.86;100.00;100853.81;5018961;28;20025;-77
2023/07/03 00:39:19;;;;;;;33.40;5.47;;;;;;;16.90;100.00;100860.47;5016663;28;20072;-76
2023/07/03 00:41:45;;;;;;;38.78;5.75;;;;;;;16.93;100.00;100868.19;5016645;28;20433;-76
2023/07/03 00:44:13;;;;;;;35.22;5.22;;;;;;;16.97;100.00;100865.84;5016042;28;20132;-78
2023/07/03 00:46:40;;;;;;;24.98;4.88;;;;;;;17.00;100.00;100863.50;5014174;28;20533;-76
2023/07/03 00:49:07;;;;;;;37.63;6.40;;;;;;;17.00;100.00;100859.97;5017066;28;20029;-76
2023/07/03 00:51:32;;;;;;;34.60;4.97;;;;;;;17.05;100.00;100852.78;5014921;28;20404;-78
2023/07/03 00:53:58;;;;;;;26.80;4.57;;;;;;;17.09;100.00;100843.13;4996441;28;20124;-77
2023/07/03 00:56:23;;;;;;;28.45;4.70;;;;;;;17.11;100.00;100848.34;5010766;28;20050;-76
2023/07/03 00:58:48;;;;;;;28.10;4.95;;;;;;;17.14;100.00;100849.78;5014695;28;20092;-77
2023/07/03 01:01:37;;;;;;;37.25;4.80;;;;;;;17.14;100.00;100845.19;5014562;28;20030;-77
2023/07/03 01:04:15;;;;;;;34.17;4.82;;;;;;;17.13;100.00;100837.25;5003642;28;20038;-77
2023/07/03 01:06:47;;;;;;;26.38;4.35;;;;;;;17.16;100.00;100844.94;4996266;28;20030;-77
2023/07/03 01:09:14;;;;;;;25.35;4.05;;;;;;;17.16;100.00;100843.06;4996834;28;20018;-77
2023/07/03 01:11:41;;;;;;;20.10;4.03;;;;;;;17.16;100.00;100832.19;4997388;28;20034;-76
2023/07/03 01:14:07;;;;;;;27.83;4.38;;;;;;;17.18;100.00;100835.50;4997216;28;20022;-76
2023/07/03 01:16:33;;;;;;;22.83;4.13;;;;;;;17.20;100.00;100833.41;4995327;28;20045;-76
2023/07/03 01:18:59;;;;;;;28.10;5.07;;;;;;;17.15;100.00;100835.97;5017066;28;20037;-77
2023/07/03 01:21:52;;;;;;;22.35;4.20;;;;;;;17.17;100.00;100827.56;4996764;28;20420;-77
2023/07/03 01:24:33;;;;;;;24.30;4.03;;;;;;;17.16;100.00;100826.75;4978891;28;20482;-77
2023/07/03 01:27:02;;;;;;;23.70;3.63;;;;;;;17.18;100.00;100821.91;5005848;28;20030;-77
2023/07/03 01:29:28;;;;;;;25.33;4.28;;;;;;;17.18;100.00;100826.53;4996637;28;20034;-77
2023/07/03 01:31:54;;;;;;;18.92;3.00;;;;;;;17.18;100.00;100823.81;4994574;28;20034;-79
2023/07/03 01:34:23;;;;;;;15.02;3.05;;;;;;;17.18;100.00;100819.19;4995804;28;20025;-77
2023/07/03 01:36:49;;;;;;;14.07;2.53;;;;;;;17.21;100.00;100824.19;5015205;28;20092;-76
2023/07/03 01:39:14;;;;;;;16.80;3.05;;;;;;;17.20;100.00;100814.38;5014095;28;20033;-77
2023/07/03 01:41:40;;;;;;;15.30;3.20;;;;;;;17.19;100.00;100820.84;4995577;28;20034;-77
2023/07/03 01:44:05;;;;;;;12.00;2.38;;;;;;;17.17;100.00;100820.25;4994903;28;20108;-76
2023/07/03 01:46:30;;;;;;;11.18;2.30;;;;;;;17.18;100.00;100818.38;5012670;28;20021;-76
2023/07/03 01:48:56;;;;;;;8.02;1.95;;;;;;;17.19;100.00;100820.84;5012091;28;20116;-76
2023/07/03 01:51:34;;;;;;;10.20;2.28;;;;;;;17.24;100.00;100823.72;5012572;28;20484;-76
2023/07/03 01:54:09;;;;;;;9.80;2.42;;;;;;;17.22;100.00;100812.25;5001258;28;20025;-76
2023/07/03 01:56:38;;;;;;;12.98;2.35;;;;;;;17.22;100.00;100820.41;4994737;28;20042;-75
2023/07/03 01:59:09;;;;;;;10.68;2.17;;;;;;;17.23;100.00;100816.63;4996591;28;20049;-77
2023/07/03 02:01:57;;;;;;;18.63;2.63;;;;;;;17.20;100.00;100811.66;4996323;28;20025;-77
2023/07/03 02:04:35;;;;;;;15.18;2.67;;;;;;;17.21;100.00;100813.28;5014965;28;20068;-78
2023/07/03 02:07:02;;;;;;;11.38;1.80;;;;;;;17.18;100.00;100821.09;5013924;28;20084;-76
2023/07/03 02:09:28;;;;;;;12.07;2.40;;;;;;;17.19;100.00;100804.53;4996361;28;20034;-76
2023/07/03 02:11:55;;;;;;;14.38;2.47;;;;;;;17.19;100.00;100812.69;4996226;28;20030;-77
2023/07/03 02:14:23;;;;;;;12.45;1.98;;;;;;;17.11;100.00;100807.53;4998011;28;20037;-77
2023/07/03 02:16:50;;;;;;;15.18;2.40;;;;;;;17.11;100.00;100807.53;5013775;28;20030;-77
2023/07/03 02:19:16;;;;;;;6.80;2.03;;;;;;;17.11;99.80;100807.53;4994596;28;20029;-76
2023/07/03 02:21:44;;;;;;;5.90;1.52;;;;;;;17.09;98.46;100812.41;5013897;28;20439;-77
2023/07/03 02:24:11;;;;;;;8.32;1.80;;;;;;;17.06;99.00;100813.69;5013202;28;20030;-75
2023/07/03 02:26:36;;;;;;;10.95;1.38;;;;;;;17.04;99.85;100812.25;5012512;28;20404;-76
2023/07/03 02:29:01;;;;;;;14.05;1.80;;;;;;;17.05;100.00;100808.47;5009859;28;20026;-77
2023/07/03 02:31:27;;;;;;;6.75;1.50;;;;;;;17.07;100.00;100817.22;5011533;28;20068;-76
2023/07/03 02:33:52;;;;;;;15.25;2.53;;;;;;;17.06;100.00;100810.97;5000672;28;20434;-77
2023/07/03 02:36:18;;;;;;;5.18;1.50;;;;;;;17.07;100.00;100812.63;5006244;28;20076;-77
2023/07/03 02:38:43;;;;;;;17.02;2.00;;;;;;;17.03;100.00;100816.00;5011997;28;20381;-77
2023/07/03 02:41:08;;;;;;;12.23;1.95;;;;;;;17.04;100.00;100820.41;5012515;28;20033;-77
2023/07/03 02:43:34;;;;;;;14.38;1.88;;;;;;;17.04;100.00;100817.69;5011684;28;20076;-77
2023/07/03 02:46:03;;;;;;;11.25;1.50;;;;;;;17.03;100.00;100807.84;5013228;28;20176;-77
2023/07/03 02:48:29;;;;;;;10.07;1.85;;;;;;;17.04;100.00;100817.69;5012402;28;20076;-76
2023/07/03 02:50:54;;;;;;;10.10;1.98;;;;;;;17.04;100.00;100814.97;5012471;28;20139;-76
2023/07/03 02:53:20;;;;;;;10.25;1.90;;;;;;;17.00;100.00;100816.47;5011349;28;20488;-76
2023/07/03 02:55:48;;;;;;;6.40;1.60;;;;;;;16.96;100.00;100820.69;5012157;28;20030;-76
2023/07/03 02:58:14;;;;;;;12.60;1.63;;;;;;;16.96;100.00;100815.25;5012487;28;20018;-76
2023/07/03 03:00:41;;;;;;;11.55;2.45;;;;;;;16.93;100.00;100815.69;5004410;28;20056;-76
2023/07/03 03:03:06;;;;;;;10.70;2.03;;;;;;;16.93;100.00;100811.09;5012404;28;20111;-76
2023/07/03 03:05:32;;;;;;;12.90;2.00;;;;;;;16.84;100.00;100807.81;5012603;28;20057;-76
2023/07/03 03:07:58;;;;;;;10.65;2.13;;;;;;;16.80;100.00;100798.47;4995701;28;20095;-76
2023/07/03 03:10:24;;;;;;;13.52;2.00;;;;;;;16.76;100.00;100802.66;5014785;28;20473;-78
2023/07/03 03:12:49;;;;;;;14.02;2.25;;;;;;;16.72;100.00;100806.88;5012928;28;20053;-77
2023/07/03 03:15:17;;;;;;;14.38;1.88;;;;;;;16.70;100.00;100806.28;5012749;28;20026;-76
2023/07/03 03:17:42;;;;;;;;;;;;;;;16.70;100.00;100805.44;5013259;28;20477;-77
2023/07/03 03:20:09;;;;;;;14.90;2.20;;;;;;;16.66;100.00;100805.88;5010753;28;19929;-77
2023/07/03 03:22:34;;;;;;;15.68;3.03;;;;;;;16.65;100.00;100803.41;5011814;28;20022;-77
2023/07/03 03:25:00;;;;;;;13.38;2.13;;;;;;;16.64;100.00;100807.13;5011968;28;20048;-76
2023/07/03 03:27:25;;;;;;;10.63;2.20;;;;;;;16.57;100.00;100807.22;5010571;28;20030;-76
2023/07/03 03:29:51;;;;;;;22.23;2.40;;;;;;;16.52;100.00;100815.19;5011857;28;20670;-76
2023/07/03 03:32:16;;;;;;;15.43;2.33;;;;;;;16.50;100.00;100808.31;5010957;28;20030;-76
2023/07/03 03:34:41;;;;;;;11.45;1.48;;;;;;;16.46;100.00;100807.94;5010882;28;20501;-76
2023/07/03 03:37:07;;;;;;;7.38;1.50;;;;;;;16.40;100.00;100806.09;5011833;28;20033;-76
2023/07/03 03:39:32;;;;;;;13.18;2.42;;;;;;;16.36;100.00;100805.72;5010814;28;20432;-76
2023/07/03 03:41:57;;;;;;;12.10;1.80;;;;;;;16.30;100.00;100809.34;5012236;28;20036;-77
2023/07/03 03:44:23;;;;;;;12.60;2.30;;;;;;;16.25;100.00;100806.44;5011887;28;20350;-77
2023/07/03 03:46:48;;;;;;;9.88;2.15;;;;;;;16.25;100.00;100801.00;5013850;28;20474;-77
2023/07/03 03:49:14;;;;;;;11.88;2.38;;;;;;;16.21;100.00;100807.91;4976305;28;20026;-77
2023/07/03 03:51:40;;;;;;;12.32;2.15;;;;;;;16.21;100.00;100799.78;5011019;28;20048;-77
2023/07/03 03:54:07;;;;;;;12.73;2.00;;;;;;;16.19;100.00;100801.88;5007966;28;20037;-76
2023/07/03 03:56:33;;;;;;;13.67;2.47;;;;;;;16.19;100.00;100799.16;4991951;28;20038;-77
2023/07/03 03:58:58;;;;;;;13.90;2.00;;;;;;;16.23;100.00;100797.69;5009014;28;20096;-77
2023/07/03 04:01:23;;;;;;;22.42;2.15;;;;;;;16.25;100.00;100803.72;5009166;28;20061;-77
2023/07/03 04:03:49;;;;;;;10.77;2.08;;;;;;;16.26;100.00;100808.09;5008994;28;20081;-77
2023/07/03 04:06:17;;;;;;;17.77;2.40;;;;;;;16.28;100.00;100799.75;5012080;28;20196;-77
2023/07/03 04:08:43;;;;;;;11.55;2.17;;;;;;;16.26;100.00;100805.38;5011558;28;20037;-77
2023/07/03 04:11:09;;;;;;;12.20;2.50;;;;;;;16.26;100.00;100804.56;5011538;28;20570;-77
2023/07/03 04:13:35;;;;;;;13.65;1.98;;;;;;;16.26;100.00;100799.94;5010740;28;20088;-78
2023/07/03 04:16:02;;;;;;;9.43;2.17;;;;;;;16.32;100.00;100804.47;5011171;28;20038;-77
2023/07/03 04:18:28;;;;;;;20.35;2.65;;;;;;;16.31;100.00;100812.88;5010427;28;20060;-77
2023/07/03 04:20:54;;;;;;;15.02;2.45;;;;;;;16.31;100.00;100812.88;5009245;28;20034;-76
2023/07/03 04:23:19;;;;;;;10.90;1.95;;;;;;;16.35;100.00;100809.50;5008435;28;20030;-76
2023/07/03 04:25:44;;;;;;;13.82;2.22;;;;;;;16.38;100.00;100819.91;5008801;28;20040;-77
2023/07/03 04:28:11;;;;;;;16.30;2.38;;;;;;;16.36;100.00;100815.75;5009030;28;20103;-77
2023/07/03 04:30:37;;;;;;;11.40;2.58;;;;;;;16.38;100.00;100817.19;5010525;28;20034;-76
2023/07/03 04:33:03;;;;;;;13.95;2.75;;;;;;;16.37;100.00;100820.94;5010832;28;20038;-77
2023/07/03 04:35:29;;;;;;;9.63;2.13;;;;;;;16.39;100.00;100826.19;4991715;28;20092;-77
2023/07/03 04:37:54;;;;;;;16.15;3.00;;;;;;;16.40;100.00;100817.81;5008982;28;20025;-76
2023/07/03 04:40:20;;;;;;;10.68;2.35;;;;;;;16.44;100.00;100819.03;5007511;28;20034;-77
2023/07/03 04:42:45;;;;;;;15.23;2.33;;;;;;;16.49;100.00;100825.69;5007980;28;20069;-76
2023/07/03 04:45:13;;;;;;;10.00;2.20;;;;;;;16.50;100.00;100827.34;4991760;28;20080;-76
2023/07/03 04:47:39;;;;;;;;;;;;;;;16.52;100.00;100826.06;5009727;28;20432;-77
2023/07/03 04:50:10;;;;;;;8.93;2.38;;;;;;;16.56;100.00;100829.16;5009789;28;19917;-79
2023/07/03 04:52:38;;;;;;;14.27;2.10;;;;;;;16.61;100.00;100826.63;5011761;28;20030;-76
2023/07/03 04:55:05;;;;;;;10.85;2.25;;;;;;;16.63;100.00;100833.50;5003147;28;20076;-78
2023/07/03 04:57:30;;;;;;;12.77;2.20;;;;;;;16.64;100.00;100827.03;4994467;28;20195;-78
2023/07/03 04:59:56;;;;;;;16.85;2.60;;;;;;;16.67;100.00;100828.47;5009701;28;20080;-78
2023/07/03 05:02:21;;;;;;;18.92;2.63;;;;;;;16.73;100.00;100830.28;5013282;28;20551;-77
2023/07/03 05:04:47;;;;;;;16.80;2.60;;;;;;;16.78;100.00;100830.47;5013543;28;20037;-77
2023/07/03 05:07:12;;;;;;;10.40;2.80;;;;;;;16.74;100.00;100834.66;4995507;28;20494;-78
2023/07/03 05:09:38;;;;;;;10.88;2.47;;;;;;;16.71;100.00;100845.97;5006176;28;20088;-77
2023/07/03 05:12:04;;;;;;;15.65;3.17;;;;;;;16.67;100.00;100842.06;5011624;28;20034;-77
2023/07/03 05:14:29;;;;;;;8.88;2.00;;;;;;;16.69;100.00;100842.63;5014006;28;20030;-77
2023/07/03 05:16:54;;;;;;;16.80;2.55;;;;;;;16.72;100.00;100839.50;5014861;28;20121;-76
2023/07/03 05:19:21;;;;;;;13.50;2.45;;;;;;;16.74;100.00;100847.41;5014800;28;20060;-76
2023/07/03 05:21:46;;;;;;;22.70;2.38;;;;;;;16.78;100.00;100845.97;5014145;28;20030;-76
2023/07/03 05:24:12;;;;;;;14.10;2.95;;;;;;;16.84;100.00;100845.06;5016762;28;20433;-77
2023/07/03 05:26:37;;;;;;;16.50;2.78;;;;;;;16.89;100.00;100846.03;5016982;28;20517;-79
2023/07/03 05:29:03;;;;;;;13.02;2.35;;;;;;;16.88;100.00;100844.41;5016108;28;20034;-77
2023/07/03 05:31:28;;;;;;;18.95;2.72;;;;;;;16.92;100.00;100844.75;5014863;28;20086;-76
2023/07/03 05:33:54;;;;;;;20.30;3.42;;;;;;;16.93;100.00;100853.75;5014276;28;20033;-77
2023/07/03 05:36:19;;;;;;;18.60;2.47;;;;;;;16.87;100.00;100856.31;5016008;28;20037;-77
2023/07/03 05:38:44;;;;;;;15.20;2.08;;;;;;;16.89;100.00;100845.22;5015795;28;20112;-77
2023/07/03 05:41:10;;;;;;;18.98;2.33;;;;;;;16.89;100.00;100848.75;5014654;28;20026;-78
2023/07/03 05:43:36;;;;;;;12.82;2.60;;;;;;;16.94;100.00;100848.09;5011422;28;20036;-77
2023/07/03 05:46:01;;;;;;;13.25;2.10;;;;;;;16.89;100.00;100848.75;5016708;28;20026;-77
2023/07/03 05:48:26;;;;;;;17.48;2.70;;;;;;;16.88;100.00;100849.81;5015841;28;20741;-77
2023/07/03 05:50:52;;;;;;;12.13;2.33;;;;;;;16.89;100.00;100843.31;5013429;28;20042;-77
2023/07/03 05:53:18;;;;;;;17.25;2.65;;;;;;;16.85;100.00;100850.28;5016606;28;20025;-77
2023/07/03 05:55:43;;;;;;;13.52;2.20;;;;;;;16.92;100.00;100860.25;4997613;28;20034;-77
2023/07/03 05:58:09;;;;;;;11.95;2.60;;;;;;;17.09;100.00;100858.63;4981973;28;20088;-77
2023/07/03 06:00:37;;;;;;;16.08;3.08;;;;;;;17.13;100.00;100859.00;5015313;28;20032;-77
2023/07/03 06:03:02;;;;;;;13.70;2.53;;;;;;;17.15;100.00;100855.00;4998319;28;20468;-77
2023/07/03 06:05:27;;;;;;;27.38;3.17;;;;;;;17.25;100.00;100851.78;5015953;28;20036;-78
2023/07/03 06:07:53;;;;;;;14.27;2.90;;;;;;;17.29;100.00;100842.09;5015203;28;20030;-76
2023/07/03 06:10:18;;;;;;;12.07;1.92;;;;;;;17.40;100.00;100845.94;5014382;28;20034;-76
2023/07/03 06:12:44;;;;;;;18.48;2.53;;;;;;;17.55;100.00;100846.38;5013365;28;20116;-78
2023/07/03 06:15:10;;;;;;;18.77;2.72;;;;;;;17.72;100.00;100847.44;5014158;28;20029;-76
2023/07/03 06:17:40;;;;;;;19.80;2.53;;;;;;;17.96;100.00;100847.56;5013483;28;20030;-76
2023/07/03 06:20:06;;;;;;;9.93;2.30;;;;;;;17.96;100.00;100853.03;5014250;28;20033;-77
2023/07/03 06:22:32;;;;;;;17.75;2.45;;;;;;;17.86;100.00;100852.75;5013779;28;20048;-76
2023/07/03 06:24:57;;;;;;;13.65;2.10;;;;;;;17.76;100.00;100859.50;4996135;28;20117;-77
2023/07/03 06:27:23;;;;;;;11.45;2.08;;;;;;;17.89;100.00;100865.88;5013182;28;20074;-76
2023/07/03 06:29:48;;;;;;;16.50;2.45;;;;;;;17.90;100.00;100859.38;5014372;28;20435;-76
2023/07/03 06:32:14;;;;;;;19.70;2.28;;;;;;;17.95;100.00;100863.06;5014117;28;20880;-80
2023/07/03 06:34:39;;;;;;;14.80;2.30;;;;;;;18.07;100.00;100854.13;5012781;28;20030;-77
2023/07/03 06:37:05;;;;;;;11.63;2.25;;;;;;;18.14;100.00;100863.88;5012027;28;20029;-77
2023/07/03 06:39:33;;;;;;;15.05;2.63;;;;;;;18.16;100.00;100864.44;5011911;28;20476;-76
2023/07/03 06:41:59;;;;;;;16.27;3.25;;;;;;;18.24;100.00;100870.63;5012073;28;20042;-76
2023/07/03 06:44:24;;;;;;;15.65;2.47;;;;;;;18.08;100.00;100866.66;4996245;28;20038;-76
2023/07/03 06:46:50;;;;;;;18.98;3.13;;;;;;;18.02;100.00;100873.88;5012477;28;20061;-76
2023/07/03 06:49:17;;;;;;;14.15;2.53;;;;;;;18.23;100.00;100868.97;5015923;28;20088;-76
2023/07/03 06:51:42;;;;;;;18.85;2.45;;;;;;;18.42;100.00;100868.66;5015193;28;20026;-76
2023/07/03 06:54:08;;;;;;;13.65;2.38;;;;;;;18.35;100.00;100873.41;5015705;28;20028;-79
2023/07/03 06:56:33;;;;;;;14.27;2.22;;;;;;;18.60;100.00;100870.50;5014323;28;20045;-77
2023/07/03 06:58:58;;;;;;;18.85;2.03;;;;;;;18.59;100.00;100876.19;5016635;28;20401;-76
2023/07/03 07:01:25;;;;;;;14.93;2.30;;;;;;;18.60;100.00;100886.03;5020210;28;20042;-76
2023/07/03 07:03:51;;;;;;;14.40;2.78;;;;;;;18.72;100.00;100883.28;5020243;28;20018;-75
2023/07/03 07:06:24;;;;;;;15.93;2.35;;;;;;;18.84;100.00;100893.19;5015907;28;20063;-77
2023/07/03 07:08:50;;;;;;;13.93;2.60;;;;;;;18.96;100.00;100884.22;5013705;28;20493;-76
2023/07/03 07:11:19;;;;;;;17.52;2.67;;;;;;;19.46;100.00;100889.16;5013151;28;20037;-77
2023/07/03 07:13:46;;;;;;;14.73;2.42;;;;;;;20.32;100.00;100883.78;5010997;28;20397;-76
2023/07/03 07:16:22;;;;;;;16.65;3.15;;;;;;;20.90;100.00;100904.50;5008388;28;20057;-76
2023/07/03 07:18:54;;;;;;;19.67;3.97;;;;;;;20.78;100.00;100893.63;5010736;28;20038;-76
2023/07/03 07:21:19;;;;;;;19.77;3.03;;;;;;;20.81;100.00;100895.06;4993913;28;20392;-77
2023/07/03 07:23:53;;;;;;;18.75;3.10;;;;;;;21.04;100.00;100894.06;4993375;28;20033;-77
2023/07/03 07:26:19;;;;;;;21.27;3.47;;;;;;;20.76;100.00;100901.25;5010634;28;20485;-75
2023/07/03 07:28:45;;;;;;;18.75;2.70;;;;;;;21.33;100.00;100899.38;5012701;28;20089;-77
2023/07/03 07:31:10;;;;;;;18.95;3.00;;;;;;;22.18;95.69;100897.19;5013512;28;20470;-76
2023/07/03 07:33:35;;;;;;;16.60;3.15;;;;;;;23.06;92.05;100907.91;5011934;28;20036;-77
2023/07/03 07:36:01;;;;;;;17.60;2.80;;;;;;;22.98;89.54;100907.28;5011703;28;20026;-76
2023/07/03 07:38:26;;;;;;;14.07;2.92;;;;;;;22.49;91.89;100910.16;5011054;28;20041;-76
2023/07/03 07:41:04;;;;;;;14.55;2.60;;;;;;;22.70;90.88;100904.84;5001615;28;20138;-77
2023/07/03 07:43:29;;;;;;;19.75;2.85;;;;;;;21.81;91.48;100908.81;5003051;28;20053;-77
2023/07/03 07:45:55;;;;;;;17.55;3.00;;;;;;;21.96;93.33;100909.03;5010034;28;20022;-76
2023/07/03 07:48:20;;;;;;;18.70;3.10;;;;;;;21.68;94.19;100919.06;5012387;28;20026;-76
2023/07/03 07:50:46;;;;;;;11.63;2.97;;;;;;;21.30;95.15;100913.56;5013729;28;20045;-77
2023/07/03 07:53:11;;;;;;;12.25;2.53;;;;;;;21.53;94.56;100912.56;5012998;28;20029;-77
2023/07/03 07:55:37;;;;;;;9.57;2.05;;;;;;;22.72;87.51;100914.47;5012677;28;20036;-77
2023/07/03 07:58:02;;;;;;;9.50;2.28;;;;;;;23.43;84.03;100919.69;5011914;28;20106;-77
2023/07/03 08:00:28;;;;;;;12.20;2.08;;;;;;;23.87;81.70;100913.03;5011088;28;20030;-77
2023/07/03 08:02:53;;;;;;;10.85;2.42;;;;;;;23.42;82.04;100923.50;5010676;28;20350;-77
2023/07/03 08:05:19;;;;;;;12.85;2.70;;;;;;;23.62;82.75;100927.47;4994457;28;20029;-76
2023/07/03 08:07:45;;;;;;;10.75;2.05;;;;;;;23.39;80.80;100929.53;4994487;28;20044;-76
2023/07/03 08:10:10;;;;;;;8.38;1.90;;;;;;;22.60;81.03;100921.22;5011474;28;20033;-76
2023/07/03 08:12:36;;;;;;;11.90;2.30;;;;;;;22.06;86.15;100922.81;5010966;28;20053;-75
2023/07/03 08:15:03;;;;;;;8.40;2.25;;;;;;;21.42;88.31;100912.41;5012993;28;20366;-76
2023/07/03 08:17:29;;;;;;;12.60;2.13;;;;;;;21.01;91.54;100910.94;5012019;28;20045;-75
2023/07/03 08:19:56;;;;;;;15.35;3.13;;;;;;;20.90;92.46;100920.06;5013257;28;20477;-76
2023/07/03 08:22:22;;;;;;;19.35;3.25;;;;;;;20.68;94.03;100911.78;5010256;28;20034;-76
2023/07/03 08:24:47;;;;;;;15.30;2.80;;;;;;;20.24;96.90;100926.00;5009849;28;20117;-77
2023/07/03 08:27:12;;;;;;;14.30;2.70;;;;;;;20.02;100.00;100925.03;5005785;28;20409;-77
2023/07/03 08:29:38;;;;;;;18.10;3.30;;;;;;;19.37;100.00;100926.88;5016208;28;20122;-78
2023/07/03 08:32:03;;;;;;;25.65;3.90;;;;;;;18.75;100.00;100921.88;5014310;28;20112;-77
2023/07/03 08:34:29;;;;;;;18.42;2.60;;;;;;;18.24;100.00;100927.84;5013478;28;20388;-76
2023/07/03 08:36:54;;;;;;;20.23;3.25;;;;;;;18.33;100.00;100926.47;5011284;28;20030;-76
2023/07/03 08:39:20;;;;;;;20.65;3.58;;;;;;;18.38;100.00;100932.06;5012241;28;20026;-78
2023/07/03 08:42:00;;;;;;;17.48;2.67;;;;;;;18.62;100.00;100922.06;5012305;28;20053;-77
2023/07/03 08:44:25;;;;;;;24.38;3.72;;;;;;;19.22;100.00;100927.38;4993109;28;20076;-76
2023/07/03 08:46:51;;;;;;;15.52;2.58;;;;;;;19.45;100.00;100929.25;5015007;28;20030;-77
2023/07/03 08:49:19;;;;;;;23.58;3.33;;;;;;;20.15;100.00;100920.09;4999177;28;20080;-76
2023/07/03 08:51:44;;;;;;;16.48;2.97;;;;;;;20.14;99.26;100926.66;4999319;28;20100;-78
2023/07/03 08:54:16;;;;;;;15.77;2.67;;;;;;;19.99;99.82;100922.78;5000710;28;20025;-76
2023/07/03 08:56:42;;;;;;;19.48;2.58;;;;;;;20.01;99.60;100931.53;5000636;28;20046;-77
2023/07/03 08:59:08;;;;;;;17.77;3.05;;;;;;;19.84;100.00;100931.50;5001651;28;20597;-77
2023/07/03 09:01:33;;;;;;;14.57;2.55;;;;;;;19.84;100.00;100940.50;5000127;28;20089;-78
2023/07/03 09:04:23;;;;;;;19.88;2.97;;;;;;;19.70;100.00;100939.13;5017648;28;20026;-78
2023/07/03 09:07:01;;;;;;;26.73;4.28;;;;;;;19.45;100.00;100933.88;5016711;28;20018;-76
2023/07/03 09:09:28;;;;;;;;;;;;;;;19.15;100.00;100947.66;5019139;28;20034;-77
2023/07/03 09:12:07;;;;;;;23.45;3.55;;;;;;;19.22;100.00;100935.56;5000544;28;20300;-77
2023/07/03 09:14:37;;;;;;;18.88;2.92;;;;;;;19.64;100.00;100945.50;4978897;28;20512;-77
2023/07/03 09:17:07;;;;;;;19.98;3.25;;;;;;;19.71;100.00;100940.78;4992689;28;20030;-77
2023/07/03 09:19:33;;;;;;;19.80;3.30;;;;;;;19.99;100.00;100940.00;5032563;28;20495;-78
2023/07/03 09:22:00;;;;;;;19.80;3.38;;;;;;;19.97;100.00;100928.47;4999684;28;20025;-77
2023/07/03 09:24:26;;;;;;;20.25;3.58;;;;;;;20.21;100.00;100931.97;5001619;28;20030;-79
2023/07/03 09:26:55;;;;;;;17.35;2.75;;;;;;;20.72;100.00;100932.09;5018516;28;20022;-77
2023/07/03 09:29:20;;;;;;;20.55;3.10;;;;;;;21.09;95.99;100934.31;5011063;28;20088;-77
2023/07/03 09:31:46;;;;;;;15.10;2.97;;;;;;;20.88;97.83;100944.13;5032738;28;20033;-78
2023/07/03 09:34:11;;;;;;;18.40;3.42;;;;;;;19.77;100.00;100939.81;5036804;28;20477;-77
2023/07/03 09:36:38;;;;;;;18.60;3.15;;;;;;;20.06;100.00;100937.94;5018228;28;20030;-76
2023/07/03 09:39:19;;;;;;;15.23;2.85;;;;;;;20.92;100.00;100950.75;4997085;28;20175;-76
2023/07/03 09:41:45;;;;;;;23.13;3.33;;;;;;;21.29;98.90;100936.56;5015283;28;20045;-77
2023/07/03 09:44:12;;;;;;;20.23;3.33;;;;;;;21.75;96.64;100948.19;5015915;28;20061;-77
2023/07/03 09:46:38;;;;;;;;;;;;;;;21.38;94.59;100946.03;5019798;28;20026;-77
2023/07/03 09:49:06;;;;;;;20.92;2.83;;;;;;;21.16;95.83;100946.75;5041605;28;19909;-77
2023/07/03 09:51:31;;;;;;;;;;;;;;;20.38;99.94;100949.25;5008652;28;20030;-77
2023/07/03 09:53:59;;;;;;;14.73;3.13;;;;;;;20.28;100.00;100943.59;5005453;28;19974;-76
2023/07/03 09:56:28;;;;;;;16.92;3.67;;;;;;;20.14;100.00;100950.38;5022052;28;20053;-76
2023/07/03 09:59:00;;;;;;;13.95;2.72;;;;;;;20.74;98.30;100940.88;5022528;28;20022;-77
2023/07/03 10:01:30;;;;;;;16.48;3.10;;;;;;;20.64;96.41;100930.56;5000169;28;20324;-76
2023/07/03 10:04:10;;;;;;;10.23;2.13;;;;;;;21.73;95.76;100939.41;5015597;28;20511;-78
2023/07/03 10:06:36;;;;;;;15.93;2.90;;;;;;;22.68;91.11;100953.66;5027358;28;20068;-78
2023/07/03 10:09:16;;;;;;;17.20;3.88;;;;;;;23.58;87.75;100953.81;5036683;28;20055;-77
2023/07/03 10:11:58;;;;;;;13.88;2.90;;;;;;;23.91;84.04;100951.81;5020177;28;20022;-77
2023/07/03 10:14:29;;;;;;;19.88;3.60;;;;;;;23.49;84.45;100964.50;5022761;28;20026;-77
2023/07/03 10:16:55;;;;;;;14.95;2.50;;;;;;;22.78;81.50;100962.00;5007235;28;20073;-77
2023/07/03 10:19:20;;;;;;;12.85;2.60;;;;;;;22.63;80.99;100967.34;5021665;28;20072;-78
2023/07/03 10:21:46;;;;;;;11.90;1.90;;;;;;;22.34;80.88;100975.81;5017266;28;20041;-79
2023/07/03 10:24:12;;;;;;;11.98;2.45;;;;;;;21.63;83.94;100976.53;5038937;28;20492;-80
2023/07/03 10:26:43;;;;;;;12.52;2.20;;;;;;;22.46;84.51;100971.00;5015466;28;20041;-78
2023/07/03 10:29:20;;;;;;;15.93;3.00;;;;;;;23.11;82.12;100976.56;5003449;28;20350;-77
2023/07/03 10:31:52;;;;;;;12.18;2.40;;;;;;;22.78;82.21;100981.19;5018723;28;20025;-78
2023/07/03 10:34:27;;;;;;;17.67;3.00;;;;;;;21.56;86.56;100973.13;5005049;28;20030;-78
2023/07/03 10:36:59;;;;;;;17.17;2.13;;;;;;;21.34;86.99;100980.44;5014522;28;20026;-77
2023/07/03 10:39:36;;;;;;;12.48;2.53;;;;;;;21.51;85.34;100970.31;5012446;28;20030;-76
2023/07/03 10:42:03;;;;;;;12.93;1.90;;;;;;;21.24;88.21;100984.66;5001774;28;20034;-77
2023/07/03 10:44:36;;;;;;;12.65;2.42;;;;;;;20.67;91.02;100993.00;5000072;28;20037;-77
2023/07/03 10:47:16;;;;;;;16.25;2.67;;;;;;;21.24;92.20;100984.66;4995985;28;20026;-78
2023/07/03 10:49:42;;;;;;;14.50;2.30;;;;;;;22.05;84.15;100984.19;4996528;28;20461;-77
2023/07/03 10:52:27;;;;;;;12.75;1.73;;;;;;;22.25;80.39;100996.53;4980440;28;20098;-78
2023/07/03 10:55:07;;;;;;;9.60;2.20;;;;;;;21.31;83.07;100987.25;5004174;28;20034;-77
2023/07/03 10:57:54;;;;;;;10.85;2.30;;;;;;;20.92;86.95;100983.59;5025534;28;20060;-77
2023/07/03 11:00:33;;;;;;;8.60;1.87;;;;;;;20.78;88.04;100983.91;5042542;28;20048;-77
2023/07/03 11:03:14;;;;;;;14.13;2.22;;;;;;;20.55;89.66;100976.66;5007299;28;20389;-77
2023/07/03 11:05:48;;;;;;;11.30;2.63;;;;;;;21.19;89.20;100968.16;4998121;28;20017;-79
2023/07/03 11:08:21;;;;;;;14.35;2.63;;;;;;;21.48;84.83;100979.03;5018484;28;20034;-79
2023/07/03 11:11:38;;;;;;;9.07;2.25;;;;;;;20.94;87.44;100968.59;5013771;28;20492;-77
2023/07/03 11:14:13;;;;;;;18.27;2.67;;;;;;;21.37;89.08;100972.53;4918211;29;20480;-77
2023/07/03 11:16:51;;;;;;;10.55;2.05;;;;;;;22.14;83.30;100971.72;5004593;28;20038;-78